Time;durP1;ratioP1;P1;durP2;ratioP2;P2;SDS_P1;SDS_P2;PMS_P1;PMS_P2;Temp;Humidity;BMP_temperature;BMP_pressure;BME280_temperature;BME280_humidity;BME280_pressure;Samples;Min_cycle;Max_cycle;Signal;HPM_P1;HPM_P2
2024/01/26 00:01:38;;;;;;;;;;;9.20;99.90;;;;;;5026243;28;20288;-74
2024/01/26 00:04:04;;;;;;;;;;;8.50;99.90;;;;;;5026936;28;20061;-74
2024/01/26 00:06:29;;;;;;;;;;;9.40;99.90;;;;;;5016206;28;19929;-74
2024/01/26 00:08:54;;;;;;;;;;;9.20;99.90;;;;;;5035056;28;19925;-74
2024/01/26 00:11:20;;;;;;;;;;;9.10;99.90;;;;;;5030276;28;19925;-74
2024/01/26 00:13:46;;;;;;;;;;;8.60;99.90;;;;;;5014300;28;20404;-74
2024/01/26 00:16:12;;;;;;;;;;;8.60;99.90;;;;;;5018762;28;19925;-74
2024/01/26 00:18:38;;;;;;;;;;;8.70;99.90;;;;;;5015224;28;19968;-74
2024/01/26 00:21:04;;;;;;;;;;;8.70;99.90;;;;;;5032361;28;19925;-74
2024/01/26 00:23:30;;;;;;;;;;;9.30;99.90;;;;;;5019833;28;19936;-74
2024/01/26 00:25:56;;;;;;;;;;;8.60;99.90;;;;;;5021985;28;20388;-74
2024/01/26 00:28:21;;;;;;;;;;;9.30;99.90;;;;;;5033534;28;19948;-74
2024/01/26 00:30:47;;;;;;;;;;;9.20;99.90;;;;;;5034869;28;20008;-74
2024/01/26 00:33:12;;;;;;;;;;;8.70;99.90;;;;;;5034204;28;19925;-74
2024/01/26 00:35:38;;;;;;;;;;;8.70;99.90;;;;;;5026924;28;20439;-74
2024/01/26 00:38:03;;;;;;;;;;;9.10;99.90;;;;;;5014437;28;20393;-74
2024/01/26 00:40:29;;;;;;;;;;;8.80;99.90;;;;;;5014407;28;19925;-74
2024/01/26 00:42:54;;;;;;;;;;;8.90;99.90;;;;;;5018819;28;19931;-74
2024/01/26 00:45:20;;;;;;;;;;;8.80;99.90;;;;;;5034157;28;19972;-74
2024/01/26 00:47:45;;;;;;;;;;;9.20;99.90;;;;;;5033410;28;20783;-74
2024/01/26 00:50:11;;;;;;;;;;;8.80;99.90;;;;;;5022198;28;19932;-74
2024/01/26 00:52:36;;;;;;;;;;;9.30;99.90;;;;;;5016002;28;19926;-74
2024/01/26 00:55:02;;;;;;;;;;;8.70;99.90;;;;;;5024564;28;19975;-74
2024/01/26 00:57:28;;;;;;;;;;;8.70;99.90;;;;;;5034000;28;19921;-72
2024/01/26 00:59:53;;;;;;;;;;;8.70;99.90;;;;;;5023406;28;20300;-72
2024/01/26 01:02:19;;;;;;;;;;;9.40;99.90;;;;;;5020114;28;20090;-72
2024/01/26 01:04:44;;;;;;;;;;;8.70;99.90;;;;;;5035285;28;19922;-73
2024/01/26 01:07:10;;;;;;;;;;;9.30;99.90;;;;;;5018887;28;19925;-73
2024/01/26 01:09:38;;;;;;;;;;;8.70;99.90;;;;;;5016350;28;19932;-72
2024/01/26 01:12:04;;;;;;;;;;;8.80;99.90;;;;;;5013266;28;19941;-73
2024/01/26 01:14:30;;;;;;;;;;;8.80;99.90;;;;;;5028728;28;20422;-73
2024/01/26 01:16:56;;;;;;;;;;;9.10;99.90;;;;;;5034367;28;19921;-73
2024/01/26 01:19:22;;;;;;;;;;;8.60;99.90;;;;;;5033296;28;20355;-73
2024/01/26 01:21:48;;;;;;;;;;;9.60;99.90;;;;;;5033945;28;20021;-73
2024/01/26 01:24:13;;;;;;;;;;;9.00;99.90;;;;;;5030222;28;19922;-74
2024/01/26 01:26:39;;;;;;;;;;;8.80;99.90;;;;;;5033596;28;20447;-75
2024/01/26 01:29:04;;;;;;;;;;;9.40;99.90;;;;;;5030812;28;19929;-72
2024/01/26 01:31:30;;;;;;;;;;;8.80;99.90;;;;;;5012799;28;19933;-72
2024/01/26 01:33:55;;;;;;;;;;;8.70;99.90;;;;;;5015046;28;19925;-72
2024/01/26 01:36:21;;;;;;;;;;;9.10;99.90;;;;;;5014531;28;19925;-72
2024/01/26 01:38:46;;;;;;;;;;;8.70;99.90;;;;;;5028983;28;20380;-73
2024/01/26 01:41:12;;;;;;;;;;;8.70;99.90;;;;;;5033022;28;19974;-72
2024/01/26 01:43:37;;;;;;;;;;;9.10;99.90;;;;;;5032710;28;20377;-72
2024/01/26 01:46:03;;;;;;;;;;;9.10;99.90;;;;;;5011933;28;19926;-72
2024/01/26 01:48:28;;;;;;;;;;;8.80;99.90;;;;;;5013779;28;19926;-72
2024/01/26 01:50:54;;;;;;;;;;;8.80;99.90;;;;;;5012410;28;20403;-72
2024/01/26 01:53:20;;;;;;;;;;;9.20;99.90;;;;;;5027190;28;20051;-72
2024/01/26 01:55:45;;;;;;;;;;;9.00;99.90;;;;;;5032242;28;20012;-72
2024/01/26 01:58:11;;;;;;;;;;;9.10;99.90;;;;;;5033269;28;19928;-72
2024/01/26 02:00:37;;;;;;;;;;;9.40;99.90;;;;;;5032888;28;20374;-72
2024/01/26 02:03:02;;;;;;;;;;;9.00;99.90;;;;;;5026829;28;19936;-72
2024/01/26 02:05:28;;;;;;;;;;;9.00;99.90;;;;;;5013371;28;19932;-72
2024/01/26 02:07:54;;;;;;;;;;;9.20;99.90;;;;;;5014217;28;19926;-72
2024/01/26 02:10:21;;;;;;;;;;;9.20;99.90;;;;;;5012728;28;19935;-73
2024/01/26 02:12:46;;;;;;;;;;;9.30;99.90;;;;;;5015514;28;19933;-73
2024/01/26 02:15:12;;;;;;;;;;;9.70;99.90;;;;;;5023166;28;19929;-73
2024/01/26 02:17:39;;;;;;;;;;;9.40;99.90;;;;;;5012962;28;19932;-73
2024/01/26 02:20:06;;;;;;;;;;;9.40;99.90;;;;;;5025704;28;20277;-73
2024/01/26 02:22:31;;;;;;;;;;;9.10;99.90;;;;;;5012815;28;20447;-72
2024/01/26 02:24:57;;;;;;;;;;;9.80;99.90;;;;;;5013720;28;20016;-73
2024/01/26 02:27:23;;;;;;;;;;;9.50;99.90;;;;;;5013093;28;19925;-73
2024/01/26 02:29:48;;;;;;;;;;;9.20;99.90;;;;;;5018092;28;19925;-73
2024/01/26 02:32:14;;;;;;;;;;;9.20;99.90;;;;;;5012449;28;19925;-73
2024/01/26 02:34:40;;;;;;;;;;;9.60;99.90;;;;;;5013231;28;20376;-73
2024/01/26 02:37:05;;;;;;;;;;;9.20;99.90;;;;;;5013298;28;19925;-73
2024/01/26 02:39:33;;;;;;;;;;;9.10;99.90;;;;;;5013832;28;20016;-72
2024/01/26 02:41:59;;;;;;;;;;;9.10;99.90;;;;;;5012140;28;19926;-73
2024/01/26 02:44:24;;;;;;;;;;;9.10;99.90;;;;;;5027560;28;19925;-73
2024/01/26 02:46:50;;;;;;;;;;;9.80;99.90;;;;;;5012593;28;20515;-73
2024/01/26 02:49:15;;;;;;;;;;;9.00;99.90;;;;;;5012841;28;20385;-72
2024/01/26 02:51:41;;;;;;;;;;;9.00;99.90;;;;;;5013541;28;19926;-72
2024/01/26 02:54:06;;;;;;;;;;;9.70;99.90;;;;;;5012523;28;20016;-72
2024/01/26 02:56:32;;;;;;;;;;;9.70;99.90;;;;;;5013557;28;19929;-72
2024/01/26 02:58:57;;;;;;;;;;;9.00;99.90;;;;;;5030805;28;19925;-73
2024/01/26 03:01:23;;;;;;;;;;;9.10;99.90;;;;;;5032020;28;19925;-72
2024/01/26 03:03:48;;;;;;;;;;;9.00;99.90;;;;;;5032033;28;19925;-73
2024/01/26 03:06:14;;;;;;;;;;;9.10;99.90;;;;;;5031260;28;19925;-73
2024/01/26 03:08:39;;;;;;;;;;;9.50;99.90;;;;;;5019949;28;20289;-72
2024/01/26 03:11:05;;;;;;;;;;;9.00;99.90;;;;;;5017832;28;20402;-73
2024/01/26 03:13:31;;;;;;;;;;;9.10;99.90;;;;;;5018998;28;19925;-73
2024/01/26 03:15:56;;;;;;;;;;;9.80;99.90;;;;;;5011278;28;19929;-73
2024/01/26 03:18:22;;;;;;;;;;;9.10;99.90;;;;;;5019702;28;20017;-73
2024/01/26 03:20:47;;;;;;;;;;;9.10;99.90;;;;;;5031441;28;19931;-73
2024/01/26 03:23:13;;;;;;;;;;;9.10;99.90;;;;;;5032034;28;20327;-74
2024/01/26 03:25:39;;;;;;;;;;;9.20;99.90;;;;;;5031594;28;19983;-73
2024/01/26 03:28:06;;;;;;;;;;;9.60;99.90;;;;;;5031169;28;19925;-74
2024/01/26 03:30:32;;;;;;;;;;;9.10;99.90;;;;;;5030600;28;19925;-74
2024/01/26 03:32:57;;;;;;;;;;;9.60;99.90;;;;;;5032197;28;19932;-74
2024/01/26 03:35:23;;;;;;;;;;;9.10;99.90;;;;;;5032335;28;20326;-74
2024/01/26 03:37:48;;;;;;;;;;;9.40;99.90;;;;;;5030743;28;20269;-74
2024/01/26 03:40:14;;;;;;;;;;;9.20;99.90;;;;;;5032179;28;19983;-74
2024/01/26 03:42:40;;;;;;;;;;;9.20;99.90;;;;;;5027708;28;20030;-74
2024/01/26 03:45:06;;;;;;;;;;;9.20;99.90;;;;;;5031736;28;19932;-73
2024/01/26 03:47:31;;;;;;;;;;;9.40;99.90;;;;;;5028414;28;19937;-73
2024/01/26 03:49:57;;;;;;;;;;;9.30;99.90;;;;;;5012650;28;19932;-73
2024/01/26 03:52:22;;;;;;;;;;;9.30;99.90;;;;;;5010419;28;20309;-73
2024/01/26 03:54:48;;;;;;;;;;;9.20;99.90;;;;;;5012749;28;20329;-73
2024/01/26 03:57:13;;;;;;;;;;;9.50;99.90;;;;;;5010808;28;19921;-73
2024/01/26 03:59:39;;;;;;;;;;;9.50;99.90;;;;;;5012156;28;19932;-73
2024/01/26 04:02:05;;;;;;;;;;;9.80;99.90;;;;;;5010955;28;19932;-73
2024/01/26 04:04:31;;;;;;;;;;;9.30;99.90;;;;;;5014565;28;19944;-73
2024/01/26 04:06:56;;;;;;;;;;;9.30;99.90;;;;;;5012503;28;20385;-73
2024/01/26 04:09:22;;;;;;;;;;;10.00;99.90;;;;;;5019311;28;19940;-73
2024/01/26 04:11:48;;;;;;;;;;;9.50;99.90;;;;;;5030373;28;19925;-73
2024/01/26 04:14:13;;;;;;;;;;;9.50;99.90;;;;;;5016762;28;19925;-73
2024/01/26 04:16:38;;;;;;;;;;;10.00;99.90;;;;;;5011601;28;19928;-73
2024/01/26 04:19:04;;;;;;;;;;;9.50;99.90;;;;;;5012002;28;19932;-73
2024/01/26 04:21:30;;;;;;;;;;;9.60;99.90;;;;;;5016218;28;20385;-73
2024/01/26 04:23:55;;;;;;;;;;;9.70;99.90;;;;;;5018263;28;19945;-73
2024/01/26 04:26:21;;;;;;;;;;;9.50;99.90;;;;;;5022219;28;19933;-73
2024/01/26 04:28:46;;;;;;;;;;;9.50;99.90;;;;;;5034728;28;19921;-73
2024/01/26 04:31:12;;;;;;;;;;;10.30;99.90;;;;;;5032407;28;20404;-73
2024/01/26 04:33:38;;;;;;;;;;;9.90;99.90;;;;;;5032015;28;19931;-73
2024/01/26 04:36:06;;;;;;;;;;;10.10;99.90;;;;;;5034376;28;19976;-73
2024/01/26 04:38:32;;;;;;;;;;;9.60;99.90;;;;;;5024486;28;19926;-73
2024/01/26 04:40:57;;;;;;;;;;;9.60;99.90;;;;;;5015035;28;19940;-73
2024/01/26 04:43:23;;;;;;;;;;;10.10;99.90;;;;;;5017269;28;19925;-73
2024/01/26 04:45:48;;;;;;;;;;;9.70;99.90;;;;;;5034766;28;19929;-73
2024/01/26 04:48:14;;;;;;;;;;;10.00;99.90;;;;;;5034464;28;19932;-73
2024/01/26 04:50:39;;;;;;;;;;;10.40;99.90;;;;;;5034605;28;19940;-73
2024/01/26 04:53:05;;;;;;;;;;;10.00;99.90;;;;;;5033216;28;19972;-73
2024/01/26 04:55:31;;;;;;;;;;;10.30;99.90;;;;;;5033861;28;19925;-74
2024/01/26 04:57:56;;;;;;;;;;;9.50;99.90;;;;;;5025099;28;19926;-74
2024/01/26 05:00:22;;;;;;;;;;;9.50;99.90;;;;;;5014042;28;20377;-73
2024/01/26 05:02:48;;;;;;;;;;;10.40;99.90;;;;;;5013738;28;19925;-74
2024/01/26 05:05:14;;;;;;;;;;;9.40;99.90;;;;;;5014395;28;19952;-74
2024/01/26 05:07:40;;;;;;;;;;;9.40;99.90;;;;;;5016650;28;19929;-74
2024/01/26 05:10:06;;;;;;;;;;;9.40;99.90;;;;;;5013279;28;19932;-74
2024/01/26 05:12:31;;;;;;;;;;;9.40;99.90;;;;;;5013988;28;19929;-74
2024/01/26 05:14:57;;;;;;;;;;;9.50;99.90;;;;;;5013673;28;19932;-74
2024/01/26 05:17:23;;;;;;;;;;;9.40;99.90;;;;;;5021443;28;19994;-73
2024/01/26 05:19:48;;;;;;;;;;;9.50;99.90;;;;;;5033916;28;19925;-73
2024/01/26 05:22:14;;;;;;;;;;;9.50;99.90;;;;;;5019923;28;19957;-74
2024/01/26 05:24:39;;;;;;;;;;;10.00;99.90;;;;;;5015196;28;20056;-74
2024/01/26 05:27:05;;;;;;;;;;;9.70;99.90;;;;;;5015855;28;20345;-74
2024/01/26 05:29:30;;;;;;;;;;;9.50;99.90;;;;;;5014334;28;20289;-73
2024/01/26 05:31:56;;;;;;;;;;;10.20;99.90;;;;;;5012611;28;19971;-73
2024/01/26 05:34:22;;;;;;;;;;;9.80;99.90;;;;;;5014630;28;20324;-73
2024/01/26 05:36:47;;;;;;;;;;;9.70;99.90;;;;;;5012731;28;20284;-73
2024/01/26 05:39:13;;;;;;;;;;;9.90;99.90;;;;;;5013394;28;19933;-73
2024/01/26 05:41:38;;;;;;;;;;;9.80;99.90;;;;;;5017271;28;20292;-73
2024/01/26 05:44:04;;;;;;;;;;;10.50;99.90;;;;;;5013731;28;20321;-73
2024/01/26 05:46:30;;;;;;;;;;;9.80;99.90;;;;;;5013644;28;19933;-73
2024/01/26 05:48:57;;;;;;;;;;;9.80;99.90;;;;;;5014811;28;20480;-73
2024/01/26 05:51:23;;;;;;;;;;;9.80;99.90;;;;;;5013553;28;19925;-73
2024/01/26 05:53:49;;;;;;;;;;;10.60;99.90;;;;;;5014758;28;19925;-73
2024/01/26 05:56:14;;;;;;;;;;;10.30;99.90;;;;;;5015840;28;20008;-73
2024/01/26 05:58:42;;;;;;;;;;;9.80;99.90;;;;;;5032112;28;20393;-72
2024/01/26 06:01:07;;;;;;;;;;;10.30;99.90;;;;;;5017381;28;19957;-72
2024/01/26 06:03:33;;;;;;;;;;;9.90;99.90;;;;;;5014322;28;19933;-72
2024/01/26 06:05:58;;;;;;;;;;;10.40;99.90;;;;;;5012122;28;19932;-72
2024/01/26 06:08:24;;;;;;;;;;;9.90;99.90;;;;;;5016458;28;19980;-71
2024/01/26 06:10:49;;;;;;;;;;;10.40;99.90;;;;;;5024594;28;19935;-72
2024/01/26 06:13:15;;;;;;;;;;;10.30;99.90;;;;;;5028948;28;19929;-71
2024/01/26 06:15:41;;;;;;;;;;;9.90;99.90;;;;;;5032992;28;19925;-72
2024/01/26 06:18:06;;;;;;;;;;;9.90;99.90;;;;;;5032749;28;19927;-72
2024/01/26 06:20:32;;;;;;;;;;;9.80;99.90;;;;;;5032912;28;20376;-71
2024/01/26 06:22:58;;;;;;;;;;;9.80;99.90;;;;;;5015414;28;20440;-72
2024/01/26 06:25:24;;;;;;;;;;;9.80;99.90;;;;;;5012866;28;19987;-72
2024/01/26 06:27:49;;;;;;;;;;;9.70;99.90;;;;;;5018030;28;19964;-72
2024/01/26 06:30:15;;;;;;;;;;;9.90;99.90;;;;;;5015334;28;19960;-72
2024/01/26 06:32:42;;;;;;;;;;;9.70;99.90;;;;;;5017578;28;19925;-74
2024/01/26 06:35:08;;;;;;;;;;;9.70;99.90;;;;;;5023448;28;20305;-72
2024/01/26 06:37:34;;;;;;;;;;;10.00;99.90;;;;;;5022209;28;19925;-77
2024/01/26 06:39:59;;;;;;;;;;;9.80;99.90;;;;;;5018518;28;20407;-77
2024/01/26 06:42:25;;;;;;;;;;;9.80;99.90;;;;;;5022267;28;19925;-76
2024/01/26 06:44:52;;;;;;;;;;;9.80;99.90;;;;;;5019325;28;19925;-77
2024/01/26 06:47:18;;;;;;;;;;;9.60;99.90;;;;;;5052013;28;19925;-78
2024/01/26 06:49:44;;;;;;;;;;;9.70;99.90;;;;;;5026728;28;20063;-73
2024/01/26 06:52:10;;;;;;;;;;;10.00;99.90;;;;;;5031835;28;20031;-71
2024/01/26 06:54:35;;;;;;;;;;;9.60;99.90;;;;;;5031533;28;20416;-73
2024/01/26 06:57:01;;;;;;;;;;;9.60;99.90;;;;;;5032735;28;19952;-75
2024/01/26 06:59:26;;;;;;;;;;;9.70;99.90;;;;;;5015636;28;19925;-74
2024/01/26 07:01:52;;;;;;;;;;;9.60;99.90;;;;;;5013472;28;21231;-73
2024/01/26 07:04:17;;;;;;;;;;;10.00;99.90;;;;;;5026225;28;19921;-74
2024/01/26 07:06:42;;;;;;;;;;;9.90;99.90;;;;;;5031599;28;19925;-72
2024/01/26 07:09:08;;;;;;;;;;;10.00;99.90;;;;;;5020632;28;19960;-74
2024/01/26 07:11:34;;;;;;;;;;;10.00;99.90;;;;;;5014831;28;19932;-75
2024/01/26 07:14:00;;;;;;;;;;;10.00;99.90;;;;;;5024494;28;19936;-74
2024/01/26 07:16:25;;;;;;;;;;;10.20;99.90;;;;;;5032751;28;19921;-74
2024/01/26 07:18:51;;;;;;;;;;;10.10;99.90;;;;;;5012267;28;19925;-74
2024/01/26 07:21:18;;;;;;;;;;;10.50;99.90;;;;;;5013302;28;19925;-74
2024/01/26 07:23:43;;;;;;;;;;;10.10;99.90;;;;;;5029282;28;19971;-75
2024/01/26 07:26:09;;;;;;;;;;;10.50;99.90;;;;;;5014284;28;20297;-75
2024/01/26 07:28:35;;;;;;;;;;;10.00;99.90;;;;;;5014215;28;19927;-75
2024/01/26 07:31:00;;;;;;;;;;;10.20;99.90;;;;;;5019672;28;19929;-75
2024/01/26 07:33:26;;;;;;;;;;;10.20;99.90;;;;;;5025627;28;19925;-74
2024/01/26 07:35:51;;;;;;;;;;;10.10;99.90;;;;;;5016736;28;20012;-74
2024/01/26 07:38:17;;;;;;;;;;;10.30;99.90;;;;;;5011579;28;20016;-74
2024/01/26 07:40:43;;;;;;;;;;;10.20;99.90;;;;;;5010471;28;19978;-74
2024/01/26 07:43:09;;;;;;;;;;;10.20;99.90;;;;;;5012423;28;19939;-75
2024/01/26 07:45:34;;;;;;;;;;;10.20;99.90;;;;;;5021385;28;19926;-76
2024/01/26 07:48:00;;;;;;;;;;;10.20;99.90;;;;;;5015649;28;19933;-77
2024/01/26 07:50:25;;;;;;;;;;;10.20;99.90;;;;;;5020479;28;19926;-76
2024/01/26 07:52:51;;;;;;;;;;;10.20;99.90;;;;;;5019100;28;21226;-75
2024/01/26 07:55:17;;;;;;;;;;;10.20;99.90;;;;;;5020836;28;19925;-77
2024/01/26 07:57:43;;;;;;;;;;;10.80;99.90;;;;;;5023505;28;20385;-76
2024/01/26 08:00:10;;;;;;;;;;;10.20;99.90;;;;;;5024925;28;19932;-76
2024/01/26 08:02:35;;;;;;;;;;;10.20;99.90;;;;;;5025055;28;19925;-75
2024/01/26 08:05:01;;;;;;;;;;;10.20;99.90;;;;;;5023206;28;19931;-76
2024/01/26 08:07:26;;;;;;;;;;;10.20;99.90;;;;;;5023924;28;20277;-73
2024/01/26 08:09:52;;;;;;;;;;;10.70;99.90;;;;;;5025591;28;19929;-76
2024/01/26 08:12:17;;;;;;;;;;;10.30;99.90;;;;;;5022992;28;20012;-74
2024/01/26 08:14:43;;;;;;;;;;;10.20;99.90;;;;;;5024402;28;19932;-74
2024/01/26 08:17:08;;;;;;;;;;;10.30;99.90;;;;;;5018479;28;20075;-74
2024/01/26 08:19:37;;;;;;;;;;;10.70;99.90;;;;;;5023787;28;19929;-75
2024/01/26 08:22:03;;;;;;;;;;;10.40;99.90;;;;;;5027848;28;19995;-75
2024/01/26 08:24:29;;;;;;;;;;;10.10;99.90;;;;;;5025151;28;19925;-73
2024/01/26 08:26:55;;;;;;;;;;;10.10;99.90;;;;;;5019554;28;19936;-76
2024/01/26 08:29:24;;;;;;;;;;;10.30;99.90;;;;;;5026615;28;19929;-81
2024/01/26 08:31:50;;;;;;;;;;;10.40;99.90;;;;;;5022498;28;19972;-80
2024/01/26 08:34:15;;;;;;;;;;;11.40;99.90;;;;;;5022600;28;20015;-74
2024/01/26 08:36:41;;;;;;;;;;;10.00;99.90;;;;;;5020878;28;19929;-75
2024/01/26 08:39:11;;;;;;;;;;;10.70;99.90;;;;;;5017642;28;19929;-71
2024/01/26 08:41:37;;;;;;;;;;;9.90;99.90;;;;;;5021059;28;19925;-73
2024/01/26 08:44:03;;;;;;;;;;;9.90;99.90;;;;;;5021967;28;19940;-70
2024/01/26 08:46:29;;;;;;;;;;;9.70;99.90;;;;;;5021553;28;19967;-72
2024/01/26 08:48:54;;;;;;;;;;;9.40;99.90;;;;;;5026419;28;19925;-73
2024/01/26 08:51:20;;;;;;;;;;;9.20;99.90;;;;;;5020090;28;19967;-72
2024/01/26 08:53:45;;;;;;;;;;;9.10;99.90;;;;;;5021694;28;19925;-71
2024/01/26 08:56:12;;;;;;;;;;;9.00;99.90;;;;;;5019653;28;20292;-72
2024/01/26 08:58:37;;;;;;;;;;;9.30;99.90;;;;;;5021337;28;19929;-71
2024/01/26 09:01:03;;;;;;;;;;;8.90;99.90;;;;;;5019480;28;19925;-71
2024/01/26 09:03:29;;;;;;;;;;;8.80;99.90;;;;;;5027597;28;19925;-71
2024/01/26 09:05:54;;;;;;;;;;;8.80;99.90;;;;;;5029674;28;20309;-72
2024/01/26 09:08:20;;;;;;;;;;;8.60;99.90;;;;;;5029720;28;19929;-71
2024/01/26 09:10:45;;;;;;;;;;;8.60;99.90;;;;;;5024054;28;19963;-74
2024/01/26 09:13:11;;;;;;;;;;;8.60;99.90;;;;;;5024316;28;19936;-73
2024/01/26 09:15:36;;;;;;;;;;;8.70;99.90;;;;;;5018137;28;20270;-73
2024/01/26 09:18:02;;;;;;;;;;;8.80;99.90;;;;;;5028763;28;19925;-73
2024/01/26 09:20:27;;;;;;;;;;;8.60;99.90;;;;;;5019129;28;19925;-72
2024/01/26 09:22:53;;;;;;;;;;;9.30;99.90;;;;;;5023116;28;19932;-73
2024/01/26 09:25:18;;;;;;;;;;;8.50;99.90;;;;;;5023479;28;19968;-74
2024/01/26 09:27:45;;;;;;;;;;;8.50;99.90;;;;;;5020595;28;19925;-73
2024/01/26 09:30:10;;;;;;;;;;;8.50;99.90;;;;;;5014081;28;19932;-72
2024/01/26 09:32:36;;;;;;;;;;;8.50;99.90;;;;;;5023555;28;19926;-74
2024/01/26 09:35:03;;;;;;;;;;;8.50;99.90;;;;;;5021786;28;20015;-73
2024/01/26 09:37:29;;;;;;;;;;;8.50;99.90;;;;;;5020092;28;20285;-73
2024/01/26 09:39:54;;;;;;;;;;;8.50;99.90;;;;;;5029736;28;19952;-73
2024/01/26 09:42:20;;;;;;;;;;;9.00;99.90;;;;;;5016178;28;19983;-73
2024/01/26 09:44:46;;;;;;;;;;;9.10;99.90;;;;;;5024894;28;19925;-72
2024/01/26 09:47:13;;;;;;;;;;;9.00;99.90;;;;;;5022099;28;20550;-74
2024/01/26 09:49:43;;;;;;;;;;;8.40;99.90;;;;;;5024734;28;19925;-73
2024/01/26 09:52:09;;;;;;;;;;;8.50;99.90;;;;;;5015578;28;19926;-73
2024/01/26 09:54:35;;;;;;;;;;;8.40;99.90;;;;;;5020819;28;20288;-73
2024/01/26 09:57:01;;;;;;;;;;;8.60;99.90;;;;;;5020027;28;20034;-74
2024/01/26 09:59:27;;;;;;;;;;;8.90;99.90;;;;;;5026569;28;20438;-74
2024/01/26 10:01:53;;;;;;;;;;;9.30;99.90;;;;;;5015428;28;19925;-73
2024/01/26 10:04:18;;;;;;;;;;;9.00;99.90;;;;;;5020420;28;19929;-72
2024/01/26 10:06:45;;;;;;;;;;;9.70;99.90;;;;;;5026525;28;20385;-71
2024/01/26 10:09:12;;;;;;;;;;;9.30;99.90;;;;;;5033426;28;19936;-73
2024/01/26 10:11:38;;;;;;;;;;;9.40;99.90;;;;;;5030752;28;19970;-77
2024/01/26 10:14:03;;;;;;;;;;;8.80;99.90;;;;;;5018677;28;20005;-76
2024/01/26 10:16:29;;;;;;;;;;;9.30;99.90;;;;;;5028111;28;19947;-78
2024/01/26 10:18:55;;;;;;;;;;;9.00;99.90;;;;;;5018323;28;20080;-74
2024/01/26 10:21:22;;;;;;;;;;;9.40;99.90;;;;;;5026652;28;19929;-74
2024/01/26 10:23:47;;;;;;;;;;;9.00;99.90;;;;;;5033560;28;19940;-77
2024/01/26 10:26:14;;;;;;;;;;;10.10;99.90;;;;;;5030276;28;19947;-75
2024/01/26 10:28:39;;;;;;;;;;;11.40;99.90;;;;;;5015802;28;19925;-74
2024/01/26 10:31:05;;;;;;;;;;;12.40;99.90;;;;;;5014745;28;19925;-75
2024/01/26 10:33:34;;;;;;;;;;;13.00;99.90;;;;;;5013342;28;19930;-76
2024/01/26 10:36:00;;;;;;;;;;;13.80;99.90;;;;;;5016794;28;19964;-73
2024/01/26 10:38:28;;;;;;;;;;;14.10;99.90;;;;;;5030068;28;19931;-74
2024/01/26 10:41:02;;;;;;;;;;;14.50;99.90;;;;;;5017877;28;19972;-74
2024/01/26 10:43:28;;;;;;;;;;;15.10;99.90;;;;;;5029816;28;19926;-73
2024/01/26 10:45:55;;;;;;;;;;;15.30;99.90;;;;;;5017491;28;19925;-74
2024/01/26 10:48:21;;;;;;;;;;;15.60;99.90;;;;;;5018673;28;19933;-74
2024/01/26 10:50:47;;;;;;;;;;;15.50;99.90;;;;;;5026019;28;19932;-78
2024/01/26 10:53:13;;;;;;;;;;;15.80;99.90;;;;;;5015852;28;19930;-75
2024/01/26 10:55:39;;;;;;;;;;;15.80;99.90;;;;;;5011520;28;19979;-76
2024/01/26 10:58:05;;;;;;;;;;;16.10;99.90;;;;;;5011577;28;19921;-75
2024/01/26 11:00:31;;;;;;;;;;;16.20;99.90;;;;;;5009945;28;19929;-75
2024/01/26 11:02:56;;;;;;;;;;;16.00;99.90;;;;;;5011748;28;19980;-74
2024/01/26 11:05:22;;;;;;;;;;;16.30;99.90;;;;;;5015326;28;19925;-79
2024/01/26 11:07:47;;;;;;;;;;;16.10;99.90;;;;;;5028484;28;20102;-73
2024/01/26 11:10:26;;;;;;;;;;;15.30;99.90;;;;;;5028617;28;19952;-79
2024/01/26 11:13:07;;;;;;;;;;;13.90;99.90;;;;;;5015615;28;20399;-80
2024/01/26 11:15:34;;;;;;;;;;;12.70;99.90;;;;;;5010893;28;19933;-77
2024/01/26 11:18:01;;;;;;;;;;;12.00;99.90;;;;;;5010600;28;20386;-77
2024/01/26 11:20:29;;;;;;;;;;;11.50;99.90;;;;;;5011240;28;19925;-76
2024/01/26 11:23:06;;;;;;;;;;;11.20;99.90;;;;;;5017249;28;19921;-75
2024/01/26 11:25:35;;;;;;;;;;;10.80;99.90;;;;;;5030807;28;20336;-71
2024/01/26 11:28:01;;;;;;;;;;;10.10;99.90;;;;;;5029723;28;19921;-74
2024/01/26 11:30:27;;;;;;;;;;;9.70;99.90;;;;;;5030892;28;20015;-76
2024/01/26 11:32:53;;;;;;;;;;;10.00;99.90;;;;;;5028188;28;20076;-73
2024/01/26 11:35:22;;;;;;;;;;;9.50;99.90;;;;;;5028850;28;19929;-73
2024/01/26 11:37:49;;;;;;;;;;;9.40;99.90;;;;;;5030897;28;20384;-76
2024/01/26 11:40:16;;;;;;;;;;;9.30;99.90;;;;;;5030314;28;20294;-75
2024/01/26 11:42:41;;;;;;;;;;;9.90;99.90;;;;;;5029031;28;20026;-78
2024/01/26 11:45:08;;;;;;;;;;;9.10;99.90;;;;;;5021990;28;19961;-75
2024/01/26 11:47:41;;;;;;;;;;;9.20;99.90;;;;;;5017976;28;19961;-75
2024/01/26 11:50:07;;;;;;;;;;;9.00;99.90;;;;;;5038467;28;20090;-76
2024/01/26 11:52:34;;;;;;;;;;;9.20;99.90;;;;;;5022474;28;20637;-75
2024/01/26 11:55:00;;;;;;;;;;;9.50;99.90;;;;;;5025688;28;19966;-75
2024/01/26 11:57:25;;;;;;;;;;;10.70;99.90;;;;;;5009521;28;19953;-75
2024/01/26 11:59:51;;;;;;;;;;;11.40;99.90;;;;;;5007827;28;20030;-75
2024/01/26 12:02:16;;;;;;;;;;;11.50;99.90;;;;;;5025831;28;19926;-74
2024/01/26 12:04:42;;;;;;;;;;;11.10;99.90;;;;;;5012721;28;19926;-74
2024/01/26 12:07:08;;;;;;;;;;;10.70;99.90;;;;;;5028234;28;20380;-73
2024/01/26 12:09:36;;;;;;;;;;;10.60;99.90;;;;;;5028401;28;20034;-76
2024/01/26 12:12:03;;;;;;;;;;;9.80;99.90;;;;;;5026002;28;19925;-73
2024/01/26 12:14:32;;;;;;;;;;;9.40;99.90;;;;;;5030370;28;20023;-73
2024/01/26 12:16:57;;;;;;;;;;;9.90;99.90;;;;;;5018694;28;20036;-75
2024/01/26 12:19:43;;;;;;;;;;;8.70;99.90;;;;;;5026311;28;20015;-73
2024/01/26 12:22:12;;;;;;;;;;;8.80;99.90;;;;;;5020878;28;20309;-73
2024/01/26 12:24:39;;;;;;;;;;;8.60;99.90;;;;;;5015839;28;19926;-74
2024/01/26 12:27:05;;;;;;;;;;;9.50;99.90;;;;;;5020034;28;19932;-75
2024/01/26 12:29:32;;;;;;;;;;;8.90;99.90;;;;;;5010411;28;19933;-72
2024/01/26 12:32:04;;;;;;;;;;;9.80;99.90;;;;;;5012573;28;19925;-73
2024/01/26 12:34:30;;;;;;;;;;;11.10;99.90;;;;;;5020778;28;19932;-72
2024/01/26 12:37:01;;;;;;;;;;;11.80;99.90;;;;;;5016876;28;19921;-72
2024/01/26 12:39:28;;;;;;;;;;;12.40;99.90;;;;;;5013168;28;19960;-72
2024/01/26 12:41:59;;;;;;;;;;;12.70;99.90;;;;;;5014955;28;20385;-71
2024/01/26 12:44:28;;;;;;;;;;;12.00;99.90;;;;;;5015659;28;19925;-72
2024/01/26 12:46:55;;;;;;;;;;;11.70;99.90;;;;;;5013203;28;19948;-71
2024/01/26 12:49:20;;;;;;;;;;;11.20;99.90;;;;;;5019261;28;20127;-71
2024/01/26 12:51:46;;;;;;;;;;;10.90;99.90;;;;;;5033197;28;20392;-72
2024/01/26 12:54:11;;;;;;;;;;;10.70;99.90;;;;;;5026079;28;19933;-71
2024/01/26 12:56:37;;;;;;;;;;;11.10;99.90;;;;;;5030320;28;19993;-72
2024/01/26 12:59:02;;;;;;;;;;;12.00;99.90;;;;;;5012363;28;19937;-73
2024/01/26 13:01:32;;;;;;;;;;;13.00;99.90;;;;;;5013744;28;19932;-74
2024/01/26 13:03:57;;;;;;;;;;;13.60;99.90;;;;;;5018092;28;19926;-75
2024/01/26 13:06:23;;;;;;;;;;;13.90;99.90;;;;;;5030308;28;20288;-75
2024/01/26 13:08:48;;;;;;;;;;;14.20;99.90;;;;;;5031315;28;19933;-73
2024/01/26 13:11:14;;;;;;;;;;;14.10;99.90;;;;;;5027258;28;19949;-75
2024/01/26 13:13:40;;;;;;;;;;;14.30;99.90;;;;;;5012330;28;19973;-70
2024/01/26 13:16:07;;;;;;;;;;;14.00;99.90;;;;;;5016671;28;20148;-67
2024/01/26 13:18:33;;;;;;;;;;;14.30;99.90;;;;;;5021590;28;20381;-69
2024/01/26 13:21:02;;;;;;;;;;;14.20;99.90;;;;;;5025449;28;19925;-68
2024/01/26 13:23:27;;;;;;;;;;;14.20;99.90;;;;;;5018534;28;19925;-69
2024/01/26 13:25:54;;;;;;;;;;;14.40;99.90;;;;;;5022226;28;19975;-69
2024/01/26 13:28:21;;;;;;;;;;;14.10;99.90;;;;;;5023436;28;19925;-69
2024/01/26 13:30:46;;;;;;;;;;;13.90;99.90;;;;;;5018472;28;19926;-67
2024/01/26 13:33:12;;;;;;;;;;;13.70;99.90;;;;;;5016912;28;20408;-67
2024/01/26 13:35:38;;;;;;;;;;;13.30;99.90;;;;;;5025273;28;19925;-67
2024/01/26 13:38:06;;;;;;;;;;;12.90;99.90;;;;;;5014302;28;19961;-68
2024/01/26 13:40:32;;;;;;;;;;;12.50;99.90;;;;;;5024407;28;20018;-68
2024/01/26 13:42:58;;;;;;;;;;;12.10;99.90;;;;;;5031989;28;19925;-68
2024/01/26 13:45:24;;;;;;;;;;;11.90;99.90;;;;;;5034298;28;19925;-68
2024/01/26 13:47:50;;;;;;;;;;;11.60;99.90;;;;;;5020444;28;19926;-68
2024/01/26 13:50:16;;;;;;;;;;;11.20;99.90;;;;;;5017013;28;19948;-68
2024/01/26 13:52:41;;;;;;;;;;;10.60;99.90;;;;;;5020553;28;19925;-68
2024/01/26 13:55:07;;;;;;;;;;;10.30;99.90;;;;;;5012938;28;19926;-68
2024/01/26 13:57:33;;;;;;;;;;;9.90;99.90;;;;;;5024924;28;20464;-75
2024/01/26 13:59:58;;;;;;;;;;;9.80;99.90;;;;;;5021151;28;20439;-70
2024/01/26 14:02:25;;;;;;;;;;;9.70;99.90;;;;;;5025665;28;19925;-76
2024/01/26 14:04:50;;;;;;;;;;;9.80;99.90;;;;;;5021225;28;19925;-69
2024/01/26 14:07:16;;;;;;;;;;;10.00;99.90;;;;;;5015232;28;20021;-71
2024/01/26 14:09:44;;;;;;;;;;;9.50;99.90;;;;;;5022801;28;20368;-69
2024/01/26 14:12:16;;;;;;;;;;;9.30;99.90;;;;;;5051474;28;20357;-71
2024/01/26 14:14:42;;;;;;;;;;;9.20;99.90;;;;;;5028779;28;19965;-79
2024/01/26 14:17:07;;;;;;;;;;;9.80;99.90;;;;;;5022126;28;19979;-75
2024/01/26 14:19:33;;;;;;;;;;;9.20;99.90;;;;;;5020320;28;20332;-70